DLH161 EDDF-LTFM
Flight info
| Callsign | DLH161 |
|---|---|
| Flight time | 2h 28m |
| Altitude | 31000 |
| Route | CINDY8S/18 CINDY Z74 HAREM DCT ASLEP DCT TAKUT DCT DINKU L603 BESNI/N0488F410 L605 MIQ/N0489F350 DCT ALUTU DCT BIBAG L605 ESEGA DCT VELOM/N0484F410 DCT GOTAR DCT BABIT DCT ESIRI DCT ETIDA T390 RILEX |
| Aircraft | A359/H-SDE2E3GHIJ3J4J5LM1ORWXY/LB1D1 |
Departure
| Time | 2026-05-06 09:18 |
|---|---|
| Airport | Frankfurt Main Airport (EDDF) |
Arrival
| Time | 2026-05-06 11:46 |
|---|---|
| Airport | İstanbul Airport (LTFM) |
| Time | Latitude | Longitude | Altitude | Speed | Heading |
|---|---|---|---|---|---|
| 2026-05-06 08:23 | 50.04603 | 8.56786 | 362 ft | 0 kts | 295° |
| 2026-05-06 08:23 | 50.04606 | 8.56778 | 362 ft | 0 kts | 294° |
| 2026-05-06 09:03 | 50.04598 | 8.56805 | 368 ft | 4 kts | 292° |
| 2026-05-06 09:03 | 50.04588 | 8.56839 | 366 ft | 2 kts | 296° |
| 2026-05-06 09:04 | 50.04583 | 8.56874 | 368 ft | 6 kts | 249° |
| 2026-05-06 09:04 | 50.04598 | 8.56903 | 370 ft | 4 kts | 207° |
| 2026-05-06 09:04 | 50.04622 | 8.56917 | 367 ft | 4 kts | 193° |
| 2026-05-06 09:04 | 50.04647 | 8.56930 | 364 ft | 4 kts | 206° |
| 2026-05-06 09:05 | 50.04662 | 8.56942 | 366 ft | 2 kts | 206° |
| 2026-05-06 09:10 | 50.04650 | 8.56933 | 368 ft | 3 kts | 204° |
| 2026-05-06 09:10 | 50.04618 | 8.56916 | 367 ft | 6 kts | 196° |
| 2026-05-06 09:10 | 50.04569 | 8.56897 | 368 ft | 7 kts | 193° |
| 2026-05-06 09:10 | 50.04524 | 8.56881 | 368 ft | 8 kts | 193° |
| 2026-05-06 09:11 | 50.04467 | 8.56845 | 372 ft | 10 kts | 220° |
| 2026-05-06 09:11 | 50.04429 | 8.56737 | 372 ft | 13 kts | 249° |
| 2026-05-06 09:11 | 50.04393 | 8.56583 | 369 ft | 17 kts | 250° |
| 2026-05-06 09:11 | 50.04349 | 8.56397 | 368 ft | 17 kts | 250° |
| 2026-05-06 09:12 | 50.04309 | 8.56228 | 370 ft | 18 kts | 250° |
| 2026-05-06 09:12 | 50.04261 | 8.56030 | 369 ft | 21 kts | 249° |
| 2026-05-06 09:12 | 50.04210 | 8.55814 | 365 ft | 17 kts | 249° |
| 2026-05-06 09:12 | 50.04171 | 8.55654 | 363 ft | 17 kts | 250° |
| 2026-05-06 09:13 | 50.04126 | 8.55464 | 362 ft | 20 kts | 250° |
| 2026-05-06 09:13 | 50.04076 | 8.55254 | 366 ft | 21 kts | 250° |
| 2026-05-06 09:13 | 50.04022 | 8.55030 | 368 ft | 23 kts | 249° |
| 2026-05-06 09:13 | 50.03963 | 8.54783 | 364 ft | 26 kts | 249° |
| 2026-05-06 09:14 | 50.03913 | 8.54578 | 361 ft | 17 kts | 250° |
| 2026-05-06 09:14 | 50.03866 | 8.54386 | 362 ft | 20 kts | 242° |
| 2026-05-06 09:14 | 50.03799 | 8.54218 | 361 ft | 17 kts | 246° |
| 2026-05-06 09:14 | 50.03753 | 8.54030 | 358 ft | 20 kts | 249° |
| 2026-05-06 09:15 | 50.03701 | 8.53812 | 352 ft | 23 kts | 250° |
| 2026-05-06 09:15 | 50.03642 | 8.53565 | 358 ft | 26 kts | 249° |
| 2026-05-06 09:15 | 50.03586 | 8.53343 | 357 ft | 18 kts | 249° |
| 2026-05-06 09:15 | 50.03538 | 8.53148 | 350 ft | 21 kts | 250° |
| 2026-05-06 09:16 | 50.03490 | 8.52939 | 353 ft | 15 kts | 248° |
| 2026-05-06 09:16 | 50.03454 | 8.52810 | 350 ft | 8 kts | 247° |
| 2026-05-06 09:16 | 50.03428 | 8.52707 | 353 ft | 12 kts | 249° |
| 2026-05-06 09:16 | 50.03391 | 8.52605 | 352 ft | 10 kts | 213° |
| 2026-05-06 09:17 | 50.03349 | 8.52595 | 349 ft | 0 kts | 180° |
| 2026-05-06 09:17 | 50.03319 | 8.52595 | 348 ft | 19 kts | 180° |
| 2026-05-06 09:17 | 50.02982 | 8.52597 | 345 ft | 86 kts | 180° |
| 2026-05-06 09:18 | 50.02144 | 8.52605 | 347 ft | 153 kts | 179° |
| 2026-05-06 09:18 | 50.00950 | 8.52653 | 760 ft | 177 kts | 178° |
| 2026-05-06 09:18 | 49.99767 | 8.52752 | 1859 ft | 168 kts | 180° |
| 2026-05-06 09:18 | 49.98548 | 8.52784 | 2417 ft | 190 kts | 184° |
| 2026-05-06 09:19 | 49.97135 | 8.53057 | 2820 ft | 220 kts | 162° |
| 2026-05-06 09:19 | 49.95917 | 8.54581 | 3537 ft | 233 kts | 129° |
| 2026-05-06 09:19 | 49.95061 | 8.56745 | 3910 ft | 238 kts | 121° |
| 2026-05-06 09:19 | 49.94314 | 8.59060 | 3991 ft | 241 kts | 114° |
| 2026-05-06 09:20 | 49.93969 | 8.61647 | 4023 ft | 256 kts | 97° |
| 2026-05-06 09:20 | 49.93859 | 8.64531 | 4548 ft | 275 kts | 94° |
| 2026-05-06 09:20 | 49.93688 | 8.67493 | 5513 ft | 276 kts | 103° |
| 2026-05-06 09:20 | 49.92907 | 8.70175 | 6483 ft | 274 kts | 131° |
| 2026-05-06 09:21 | 49.91496 | 8.72135 | 7450 ft | 273 kts | 147° |
| 2026-05-06 09:21 | 49.89933 | 8.73848 | 8463 ft | 277 kts | 149° |
| 2026-05-06 09:21 | 49.88457 | 8.75804 | 9543 ft | 284 kts | 134° |
| 2026-05-06 09:21 | 49.87334 | 8.78390 | 10391 ft | 298 kts | 124° |
| 2026-05-06 09:22 | 49.86272 | 8.81307 | 10854 ft | 322 kts | 122° |
| 2026-05-06 09:22 | 49.85153 | 8.84456 | 11294 ft | 344 kts | 122° |
| 2026-05-06 09:22 | 49.83970 | 8.87759 | 12033 ft | 356 kts | 122° |
| 2026-05-06 09:22 | 49.82756 | 8.91133 | 12903 ft | 361 kts | 122° |
| 2026-05-06 09:23 | 49.81518 | 8.94558 | 13814 ft | 366 kts | 122° |
| 2026-05-06 09:23 | 49.80264 | 8.98014 | 14628 ft | 371 kts | 122° |
| 2026-05-06 09:23 | 49.78991 | 9.01514 | 15474 ft | 375 kts | 122° |
| 2026-05-06 09:23 | 49.77702 | 9.05050 | 16287 ft | 379 kts | 122° |
| 2026-05-06 09:24 | 49.76460 | 9.08680 | 17094 ft | 386 kts | 117° |
| 2026-05-06 09:24 | 49.75610 | 9.12671 | 17915 ft | 393 kts | 107° |
| 2026-05-06 09:24 | 49.74837 | 9.16745 | 18652 ft | 396 kts | 113° |
| 2026-05-06 09:24 | 49.73574 | 9.20531 | 19369 ft | 397 kts | 127° |
| 2026-05-06 09:25 | 49.71950 | 9.23936 | 20094 ft | 401 kts | 131° |
| 2026-05-06 09:25 | 49.70144 | 9.27246 | 20827 ft | 405 kts | 134° |
| 2026-05-06 09:25 | 49.68253 | 9.30502 | 21585 ft | 409 kts | 135° |
| 2026-05-06 09:25 | 49.66322 | 9.33770 | 22295 ft | 414 kts | 136° |
| 2026-05-06 09:26 | 49.64372 | 9.37094 | 23034 ft | 420 kts | 135° |
| 2026-05-06 09:26 | 49.62591 | 9.40719 | 23683 ft | 429 kts | 126° |
| 2026-05-06 09:26 | 49.61202 | 9.44831 | 24343 ft | 436 kts | 116° |
| 2026-05-06 09:26 | 49.60088 | 9.49200 | 24953 ft | 441 kts | 114° |
| 2026-05-06 09:27 | 49.59074 | 9.53694 | 25557 ft | 447 kts | 112° |
| 2026-05-06 09:27 | 49.58109 | 9.58263 | 26211 ft | 450 kts | 112° |
| 2026-05-06 09:27 | 49.57153 | 9.62877 | 26861 ft | 453 kts | 112° |
| 2026-05-06 09:27 | 49.56191 | 9.67505 | 27528 ft | 455 kts | 113° |
| 2026-05-06 09:28 | 49.55214 | 9.72142 | 28234 ft | 456 kts | 114° |
| 2026-05-06 09:28 | 49.54217 | 9.76804 | 28848 ft | 459 kts | 114° |
| 2026-05-06 09:28 | 49.53040 | 9.81359 | 29405 ft | 457 kts | 122° |
| 2026-05-06 09:28 | 49.51479 | 9.85525 | 29966 ft | 452 kts | 131° |
| 2026-05-06 09:29 | 49.49618 | 9.89427 | 30375 ft | 454 kts | 134° |
| 2026-05-06 09:29 | 49.47630 | 9.93319 | 30700 ft | 459 kts | 135° |
| 2026-05-06 09:29 | 49.45597 | 9.97161 | 30792 ft | 466 kts | 136° |
| 2026-05-06 09:30 | 49.41464 | 10.04859 | 30802 ft | 472 kts | 136° |
| 2026-05-06 09:30 | 49.37293 | 10.12666 | 30804 ft | 473 kts | 135° |
| 2026-05-06 09:31 | 49.33135 | 10.20485 | 30806 ft | 473 kts | 135° |
| 2026-05-06 09:31 | 49.28972 | 10.28289 | 30805 ft | 473 kts | 136° |
| 2026-05-06 09:32 | 49.24784 | 10.36103 | 30829 ft | 475 kts | 136° |
| 2026-05-06 09:32 | 49.20244 | 10.43339 | 30830 ft | 470 kts | 142° |
| 2026-05-06 09:33 | 49.15566 | 10.50332 | 30845 ft | 470 kts | 142° |
| 2026-05-06 09:33 | 49.10868 | 10.57272 | 30841 ft | 470 kts | 142° |
| 2026-05-06 09:34 | 49.06172 | 10.64200 | 30817 ft | 470 kts | 143° |
| 2026-05-06 09:34 | 49.01454 | 10.71161 | 30841 ft | 474 kts | 143° |
| 2026-05-06 09:35 | 48.96705 | 10.78130 | 30836 ft | 473 kts | 143° |
| 2026-05-06 09:35 | 48.91961 | 10.85071 | 30834 ft | 473 kts | 143° |
| 2026-05-06 09:36 | 48.87220 | 10.92017 | 30826 ft | 473 kts | 143° |
| 2026-05-06 09:36 | 48.82476 | 10.98942 | 30794 ft | 473 kts | 143° |
| 2026-05-06 09:37 | 48.77720 | 11.05867 | 30824 ft | 475 kts | 143° |
| 2026-05-06 09:37 | 48.72952 | 11.12783 | 30828 ft | 473 kts | 143° |
| 2026-05-06 09:38 | 48.68195 | 11.19674 | 30829 ft | 475 kts | 142° |
| 2026-05-06 09:38 | 48.66005 | 11.23477 | 30971 ft | 482 kts | 134° |
| 2026-05-06 09:38 | 48.64197 | 11.27786 | 31555 ft | 490 kts | 124° |
| 2026-05-06 09:38 | 48.62817 | 11.32538 | 32056 ft | 498 kts | 117° |
| 2026-05-06 09:39 | 48.61648 | 11.37496 | 32411 ft | 503 kts | 115° |
| 2026-05-06 09:39 | 48.60557 | 11.42551 | 32785 ft | 508 kts | 114° |
| 2026-05-06 09:39 | 48.59498 | 11.47657 | 33158 ft | 511 kts | 114° |
| 2026-05-06 09:39 | 48.58445 | 11.52781 | 33601 ft | 511 kts | 114° |
| 2026-05-06 09:40 | 48.57399 | 11.57907 | 34100 ft | 511 kts | 112° |
| 2026-05-06 09:40 | 48.56548 | 11.63124 | 34575 ft | 511 kts | 109° |
| 2026-05-06 09:40 | 48.54998 | 11.73567 | 35516 ft | 508 kts | 108° |
| 2026-05-06 09:41 | 48.54244 | 11.78767 | 35891 ft | 508 kts | 108° |
| 2026-05-06 09:41 | 48.53489 | 11.83978 | 36258 ft | 507 kts | 108° |
| 2026-05-06 09:41 | 48.52734 | 11.89164 | 36690 ft | 505 kts | 108° |
| 2026-05-06 09:41 | 48.51978 | 11.94324 | 37111 ft | 503 kts | 108° |
| 2026-05-06 09:42 | 48.51220 | 11.99471 | 37537 ft | 502 kts | 108° |
| 2026-05-06 09:42 | 48.50460 | 12.04600 | 37938 ft | 500 kts | 108° |
| 2026-05-06 09:42 | 48.49700 | 12.09704 | 38339 ft | 499 kts | 108° |
| 2026-05-06 09:42 | 48.48951 | 12.14730 | 38642 ft | 498 kts | 108° |
| 2026-05-06 09:43 | 48.48175 | 12.19891 | 38846 ft | 499 kts | 108° |
| 2026-05-06 09:43 | 48.47400 | 12.24997 | 38961 ft | 502 kts | 108° |
| 2026-05-06 09:43 | 48.46882 | 12.28400 | 39090 ft | 502 kts | 107° |
| 2026-05-06 09:43 | 48.46100 | 12.33524 | 39359 ft | 502 kts | 107° |
| 2026-05-06 09:44 | 48.45318 | 12.38648 | 39605 ft | 501 kts | 107° |
| 2026-05-06 09:44 | 48.44537 | 12.43754 | 39837 ft | 501 kts | 107° |
| 2026-05-06 09:44 | 48.43752 | 12.48872 | 40053 ft | 501 kts | 107° |
| 2026-05-06 09:44 | 48.42964 | 12.53990 | 40274 ft | 501 kts | 107° |
| 2026-05-06 09:45 | 48.42175 | 12.59101 | 40493 ft | 501 kts | 107° |
| 2026-05-06 09:45 | 48.41385 | 12.64206 | 40703 ft | 501 kts | 107° |
| 2026-05-06 09:45 | 48.39737 | 12.74410 | 40803 ft | 500 kts | 111° |
| 2026-05-06 09:46 | 48.37566 | 12.84329 | 40804 ft | 499 kts | 113° |
| 2026-05-06 09:46 | 48.35281 | 12.94184 | 40802 ft | 498 kts | 113° |
| 2026-05-06 09:47 | 48.32972 | 13.04009 | 40791 ft | 499 kts | 113° |
| 2026-05-06 09:47 | 48.30672 | 13.13789 | 40800 ft | 500 kts | 113° |
| 2026-05-06 09:48 | 48.28357 | 13.23642 | 40801 ft | 500 kts | 113° |
| 2026-05-06 09:48 | 48.26033 | 13.33482 | 40811 ft | 500 kts | 113° |
| 2026-05-06 09:49 | 48.23693 | 13.43316 | 40811 ft | 501 kts | 113° |
| 2026-05-06 09:49 | 48.20830 | 13.52751 | 40819 ft | 495 kts | 124° |
| 2026-05-06 09:50 | 48.17217 | 13.61534 | 40806 ft | 494 kts | 127° |
| 2026-05-06 09:50 | 48.13484 | 13.70177 | 40822 ft | 494 kts | 127° |
| 2026-05-06 09:51 | 48.09741 | 13.78791 | 40815 ft | 494 kts | 127° |
| 2026-05-06 09:51 | 48.05991 | 13.87443 | 40816 ft | 496 kts | 127° |
| 2026-05-06 09:52 | 48.02244 | 13.96086 | 40818 ft | 496 kts | 127° |
| 2026-05-06 09:52 | 47.98486 | 14.04735 | 40818 ft | 496 kts | 127° |
| 2026-05-06 09:53 | 47.94721 | 14.13368 | 40800 ft | 496 kts | 127° |
| 2026-05-06 09:53 | 47.90956 | 14.21973 | 40823 ft | 495 kts | 127° |
| 2026-05-06 09:54 | 47.87186 | 14.30562 | 40828 ft | 495 kts | 127° |
| 2026-05-06 09:54 | 47.83407 | 14.39144 | 40827 ft | 495 kts | 127° |
| 2026-05-06 09:55 | 47.79623 | 14.47712 | 40809 ft | 495 kts | 127° |
| 2026-05-06 09:55 | 47.75835 | 14.56260 | 40832 ft | 494 kts | 127° |
| 2026-05-06 09:56 | 47.72046 | 14.64782 | 40833 ft | 494 kts | 127° |
| 2026-05-06 09:56 | 47.68256 | 14.73283 | 40841 ft | 494 kts | 127° |
| 2026-05-06 09:57 | 47.64457 | 14.81776 | 40849 ft | 494 kts | 127° |
| 2026-05-06 09:57 | 47.60649 | 14.90264 | 40854 ft | 495 kts | 127° |
| 2026-05-06 09:58 | 47.56832 | 14.98745 | 40856 ft | 495 kts | 127° |
| 2026-05-06 09:58 | 47.53008 | 15.07217 | 40856 ft | 494 kts | 127° |
| 2026-05-06 09:59 | 47.49186 | 15.15660 | 40854 ft | 494 kts | 127° |
| 2026-05-06 09:59 | 47.45357 | 15.24087 | 40872 ft | 493 kts | 127° |
| 2026-05-06 10:00 | 47.41523 | 15.32496 | 40866 ft | 493 kts | 127° |
| 2026-05-06 10:00 | 47.37693 | 15.40879 | 40864 ft | 492 kts | 127° |
| 2026-05-06 10:01 | 47.33868 | 15.49225 | 40860 ft | 491 kts | 127° |
| 2026-05-06 10:01 | 47.30045 | 15.57538 | 40857 ft | 490 kts | 128° |
| 2026-05-06 10:02 | 47.26217 | 15.65838 | 40857 ft | 489 kts | 128° |
| 2026-05-06 10:02 | 47.22416 | 15.74055 | 40858 ft | 489 kts | 128° |
| 2026-05-06 10:03 | 47.18587 | 15.82308 | 40858 ft | 489 kts | 128° |
| 2026-05-06 10:03 | 47.14744 | 15.90566 | 40858 ft | 490 kts | 128° |
| 2026-05-06 10:04 | 47.10890 | 15.98824 | 40859 ft | 490 kts | 128° |
| 2026-05-06 10:04 | 47.07034 | 16.07061 | 40866 ft | 489 kts | 128° |
| 2026-05-06 10:05 | 47.03180 | 16.15269 | 40872 ft | 488 kts | 128° |
| 2026-05-06 10:05 | 46.99434 | 16.23583 | 40884 ft | 491 kts | 123° |
| 2026-05-06 10:06 | 46.96073 | 16.32279 | 40884 ft | 491 kts | 122° |
| 2026-05-06 10:06 | 46.92776 | 16.41044 | 40885 ft | 491 kts | 122° |
| 2026-05-06 10:07 | 46.89485 | 16.49793 | 40886 ft | 491 kts | 122° |
| 2026-05-06 10:07 | 46.86178 | 16.58529 | 40895 ft | 491 kts | 122° |
| 2026-05-06 10:08 | 46.82857 | 16.67255 | 40890 ft | 492 kts | 123° |
| 2026-05-06 10:08 | 46.79525 | 16.75979 | 40907 ft | 492 kts | 123° |
| 2026-05-06 10:09 | 46.76188 | 16.84690 | 40906 ft | 492 kts | 123° |
| 2026-05-06 10:09 | 46.72849 | 16.93376 | 40904 ft | 490 kts | 123° |
| 2026-05-06 10:10 | 46.69531 | 17.01981 | 40911 ft | 490 kts | 123° |
| 2026-05-06 10:10 | 46.66187 | 17.10626 | 40913 ft | 490 kts | 123° |
| 2026-05-06 10:11 | 46.62836 | 17.19259 | 40911 ft | 490 kts | 123° |
| 2026-05-06 10:11 | 46.59480 | 17.27881 | 40909 ft | 490 kts | 123° |
| 2026-05-06 10:12 | 46.56117 | 17.36493 | 40918 ft | 489 kts | 123° |
| 2026-05-06 10:12 | 46.52749 | 17.45089 | 40925 ft | 489 kts | 123° |
| 2026-05-06 10:13 | 46.49381 | 17.53659 | 40935 ft | 489 kts | 123° |
| 2026-05-06 10:13 | 46.46001 | 17.62233 | 40936 ft | 490 kts | 123° |
| 2026-05-06 10:14 | 46.42602 | 17.70827 | 40941 ft | 491 kts | 123° |
| 2026-05-06 10:14 | 46.39193 | 17.79419 | 40943 ft | 491 kts | 123° |
| 2026-05-06 10:15 | 46.35784 | 17.87988 | 40941 ft | 491 kts | 124° |
| 2026-05-06 10:15 | 46.32362 | 17.96558 | 40942 ft | 493 kts | 123° |
| 2026-05-06 10:16 | 46.28924 | 18.05141 | 40944 ft | 494 kts | 124° |
| 2026-05-06 10:16 | 46.25477 | 18.13725 | 40947 ft | 494 kts | 124° |
| 2026-05-06 10:17 | 46.22022 | 18.22300 | 40957 ft | 494 kts | 124° |
| 2026-05-06 10:17 | 46.18555 | 18.30876 | 40963 ft | 496 kts | 124° |
| 2026-05-06 10:18 | 46.15870 | 18.37499 | 40946 ft | 497 kts | 124° |
| 2026-05-06 10:18 | 46.12393 | 18.46052 | 40948 ft | 497 kts | 124° |
| 2026-05-06 10:19 | 46.08893 | 18.54639 | 40947 ft | 497 kts | 124° |
| 2026-05-06 10:19 | 46.05381 | 18.63226 | 40952 ft | 499 kts | 124° |
| 2026-05-06 10:20 | 46.01843 | 18.71847 | 40955 ft | 500 kts | 124° |
| 2026-05-06 10:20 | 45.98303 | 18.80453 | 40957 ft | 500 kts | 124° |
| 2026-05-06 10:21 | 45.94755 | 18.89048 | 40956 ft | 500 kts | 124° |
| 2026-05-06 10:21 | 45.90642 | 18.97030 | 40963 ft | 497 kts | 133° |
| 2026-05-06 10:22 | 45.86139 | 19.04563 | 40964 ft | 497 kts | 135° |
| 2026-05-06 10:22 | 45.81575 | 19.12005 | 40964 ft | 497 kts | 135° |
| 2026-05-06 10:23 | 45.77003 | 19.19448 | 40967 ft | 497 kts | 135° |
| 2026-05-06 10:23 | 45.72426 | 19.26908 | 40963 ft | 499 kts | 134° |
| 2026-05-06 10:24 | 45.67843 | 19.34372 | 40974 ft | 499 kts | 134° |
| 2026-05-06 10:24 | 45.63257 | 19.41824 | 40974 ft | 499 kts | 134° |
| 2026-05-06 10:25 | 45.58670 | 19.49255 | 40976 ft | 499 kts | 135° |
| 2026-05-06 10:25 | 45.54075 | 19.56677 | 40977 ft | 499 kts | 135° |
| 2026-05-06 10:26 | 45.49507 | 19.64037 | 40979 ft | 499 kts | 135° |
| 2026-05-06 10:26 | 45.44900 | 19.71439 | 40968 ft | 499 kts | 135° |
| 2026-05-06 10:27 | 45.40302 | 19.78809 | 40981 ft | 498 kts | 135° |
| 2026-05-06 10:27 | 45.35689 | 19.86179 | 40984 ft | 499 kts | 135° |
| 2026-05-06 10:28 | 45.31815 | 19.92356 | 40988 ft | 500 kts | 135° |
| 2026-05-06 10:28 | 45.27187 | 19.99718 | 40994 ft | 500 kts | 135° |
| 2026-05-06 10:29 | 45.22583 | 20.07020 | 40992 ft | 500 kts | 135° |
| 2026-05-06 10:29 | 45.17935 | 20.14373 | 40993 ft | 501 kts | 135° |
| 2026-05-06 10:30 | 45.13282 | 20.21715 | 40994 ft | 501 kts | 135° |
| 2026-05-06 10:30 | 45.08619 | 20.29054 | 40999 ft | 501 kts | 135° |
| 2026-05-06 10:31 | 45.03956 | 20.36373 | 40998 ft | 501 kts | 135° |
| 2026-05-06 10:31 | 44.99283 | 20.43689 | 40994 ft | 501 kts | 135° |
| 2026-05-06 10:32 | 44.94602 | 20.50998 | 40996 ft | 501 kts | 135° |
| 2026-05-06 10:32 | 44.89916 | 20.58294 | 40998 ft | 501 kts | 135° |
| 2026-05-06 10:33 | 44.85229 | 20.65574 | 41004 ft | 502 kts | 135° |
| 2026-05-06 10:33 | 44.80523 | 20.72863 | 41004 ft | 503 kts | 135° |
| 2026-05-06 10:34 | 44.75815 | 20.80137 | 41004 ft | 503 kts | 135° |
| 2026-05-06 10:34 | 44.71098 | 20.87407 | 41004 ft | 503 kts | 135° |
| 2026-05-06 10:35 | 44.66376 | 20.94664 | 41002 ft | 504 kts | 135° |
| 2026-05-06 10:35 | 44.61645 | 21.01918 | 41001 ft | 504 kts | 135° |
| 2026-05-06 10:36 | 44.56905 | 21.09166 | 40999 ft | 504 kts | 135° |
| 2026-05-06 10:36 | 44.52164 | 21.16397 | 41004 ft | 504 kts | 135° |
| 2026-05-06 10:37 | 44.47410 | 21.23627 | 41004 ft | 505 kts | 135° |
| 2026-05-06 10:37 | 44.42651 | 21.30848 | 41012 ft | 505 kts | 135° |
| 2026-05-06 10:38 | 44.37882 | 21.38067 | 41012 ft | 505 kts | 135° |
| 2026-05-06 10:38 | 44.33110 | 21.45268 | 41013 ft | 505 kts | 135° |
| 2026-05-06 10:39 | 44.28368 | 21.52439 | 41015 ft | 506 kts | 134° |
| 2026-05-06 10:39 | 44.23601 | 21.59679 | 41016 ft | 506 kts | 134° |
| 2026-05-06 10:40 | 44.18839 | 21.66889 | 41015 ft | 506 kts | 134° |
| 2026-05-06 10:40 | 44.14053 | 21.74109 | 41014 ft | 506 kts | 134° |
| 2026-05-06 10:41 | 44.09269 | 21.81305 | 41020 ft | 506 kts | 134° |
| 2026-05-06 10:41 | 44.04479 | 21.88492 | 41016 ft | 506 kts | 134° |
| 2026-05-06 10:42 | 43.99685 | 21.95666 | 41015 ft | 506 kts | 134° |
| 2026-05-06 10:42 | 43.94890 | 22.02823 | 41019 ft | 506 kts | 134° |
| 2026-05-06 10:43 | 43.90088 | 22.09973 | 41020 ft | 507 kts | 134° |
| 2026-05-06 10:44 | 43.82869 | 22.20689 | 41015 ft | 507 kts | 134° |
| 2026-05-06 10:44 | 43.78054 | 22.27813 | 41016 ft | 507 kts | 134° |
| 2026-05-06 10:45 | 43.73231 | 22.34930 | 41003 ft | 507 kts | 134° |
| 2026-05-06 10:45 | 43.68661 | 22.42343 | 41014 ft | 508 kts | 124° |
| 2026-05-06 10:46 | 43.65194 | 22.50851 | 41025 ft | 509 kts | 117° |
| 2026-05-06 10:46 | 43.61998 | 22.59567 | 41022 ft | 509 kts | 117° |
| 2026-05-06 10:47 | 43.58851 | 22.68251 | 41024 ft | 509 kts | 117° |
| 2026-05-06 10:47 | 43.55659 | 22.76964 | 41018 ft | 509 kts | 117° |
| 2026-05-06 10:48 | 43.52441 | 22.85665 | 41022 ft | 510 kts | 117° |
| 2026-05-06 10:48 | 43.49211 | 22.94359 | 41022 ft | 510 kts | 117° |
| 2026-05-06 10:49 | 43.45974 | 23.03046 | 41024 ft | 510 kts | 117° |
| 2026-05-06 10:49 | 43.42732 | 23.11723 | 41017 ft | 510 kts | 117° |
| 2026-05-06 10:50 | 43.39478 | 23.20407 | 41018 ft | 511 kts | 117° |
| 2026-05-06 10:50 | 43.36219 | 23.29075 | 41014 ft | 510 kts | 117° |
| 2026-05-06 10:51 | 43.32950 | 23.37742 | 41015 ft | 511 kts | 117° |
| 2026-05-06 10:51 | 43.29675 | 23.46399 | 41019 ft | 511 kts | 117° |
| 2026-05-06 10:52 | 43.26389 | 23.55061 | 41021 ft | 511 kts | 117° |
| 2026-05-06 10:52 | 43.23098 | 23.63707 | 41020 ft | 511 kts | 117° |
| 2026-05-06 10:53 | 43.19796 | 23.72357 | 41019 ft | 512 kts | 117° |
| 2026-05-06 10:53 | 43.16484 | 23.81006 | 41018 ft | 513 kts | 117° |
| 2026-05-06 10:54 | 43.13164 | 23.89647 | 41016 ft | 513 kts | 117° |
| 2026-05-06 10:54 | 43.09837 | 23.98281 | 41022 ft | 513 kts | 117° |
| 2026-05-06 10:55 | 43.06527 | 24.06847 | 41022 ft | 513 kts | 117° |
| 2026-05-06 10:55 | 43.03191 | 24.15455 | 41019 ft | 513 kts | 117° |
| 2026-05-06 10:56 | 42.99845 | 24.24062 | 41024 ft | 512 kts | 117° |
| 2026-05-06 10:56 | 42.96498 | 24.32646 | 41022 ft | 512 kts | 117° |
| 2026-05-06 10:57 | 42.93143 | 24.41224 | 41026 ft | 512 kts | 117° |
| 2026-05-06 10:57 | 42.89785 | 24.49784 | 41029 ft | 512 kts | 117° |
| 2026-05-06 10:58 | 42.86420 | 24.58337 | 41032 ft | 511 kts | 117° |
| 2026-05-06 10:58 | 42.83051 | 24.66877 | 41032 ft | 512 kts | 117° |
| 2026-05-06 10:59 | 42.79668 | 24.75427 | 41035 ft | 513 kts | 117° |
| 2026-05-06 10:59 | 42.76279 | 24.83965 | 41034 ft | 512 kts | 117° |
| 2026-05-06 11:00 | 42.72888 | 24.92484 | 41041 ft | 512 kts | 117° |
| 2026-05-06 11:00 | 42.69490 | 25.00998 | 41041 ft | 512 kts | 117° |
| 2026-05-06 11:01 | 42.66088 | 25.09497 | 41037 ft | 512 kts | 117° |
| 2026-05-06 11:01 | 42.62672 | 25.18004 | 41023 ft | 512 kts | 117° |
| 2026-05-06 11:02 | 42.59256 | 25.26485 | 41024 ft | 512 kts | 118° |
| 2026-05-06 11:02 | 42.56387 | 25.33590 | 41027 ft | 512 kts | 118° |
| 2026-05-06 11:03 | 42.52913 | 25.42171 | 41025 ft | 512 kts | 118° |
| 2026-05-06 11:03 | 42.49503 | 25.50566 | 41030 ft | 511 kts | 118° |
| 2026-05-06 11:04 | 42.46069 | 25.58998 | 41033 ft | 511 kts | 118° |
| 2026-05-06 11:04 | 42.42626 | 25.67428 | 41037 ft | 511 kts | 118° |
| 2026-05-06 11:05 | 42.39185 | 25.75830 | 41036 ft | 510 kts | 118° |
| 2026-05-06 11:05 | 42.35733 | 25.84235 | 41040 ft | 511 kts | 118° |
| 2026-05-06 11:06 | 42.32268 | 25.92643 | 41059 ft | 512 kts | 118° |
| 2026-05-06 11:06 | 42.28801 | 26.01035 | 41048 ft | 511 kts | 118° |
| 2026-05-06 11:07 | 42.25329 | 26.09414 | 41047 ft | 511 kts | 118° |
| 2026-05-06 11:07 | 42.22414 | 26.16436 | 41053 ft | 511 kts | 118° |
| 2026-05-06 11:08 | 42.18931 | 26.24788 | 41051 ft | 510 kts | 118° |
| 2026-05-06 11:08 | 42.17189 | 26.28958 | 40877 ft | 509 kts | 118° |
| 2026-05-06 11:08 | 42.15456 | 26.33101 | 40205 ft | 509 kts | 118° |
| 2026-05-06 11:08 | 42.13734 | 26.37216 | 39413 ft | 512 kts | 118° |
| 2026-05-06 11:09 | 42.11956 | 26.41457 | 38616 ft | 514 kts | 118° |
| 2026-05-06 11:09 | 42.10216 | 26.45601 | 37672 ft | 516 kts | 117° |
| 2026-05-06 11:09 | 42.08451 | 26.49799 | 36881 ft | 515 kts | 117° |
| 2026-05-06 11:09 | 42.06687 | 26.53988 | 36144 ft | 513 kts | 117° |
| 2026-05-06 11:10 | 42.04927 | 26.58161 | 35383 ft | 513 kts | 117° |
| 2026-05-06 11:10 | 42.03162 | 26.62341 | 34586 ft | 514 kts | 117° |
| 2026-05-06 11:10 | 42.01389 | 26.66537 | 33641 ft | 517 kts | 117° |
| 2026-05-06 11:10 | 41.99607 | 26.70747 | 32683 ft | 519 kts | 117° |
| 2026-05-06 11:11 | 41.97819 | 26.74963 | 31761 ft | 520 kts | 117° |
| 2026-05-06 11:11 | 41.96015 | 26.79185 | 30783 ft | 522 kts | 118° |
| 2026-05-06 11:11 | 41.94132 | 26.83360 | 29708 ft | 524 kts | 119° |
| 2026-05-06 11:11 | 41.92216 | 26.87540 | 28622 ft | 525 kts | 120° |
| 2026-05-06 11:12 | 41.90962 | 26.90282 | 28421 ft | 515 kts | 120° |
| 2026-05-06 11:12 | 41.89098 | 26.94359 | 28268 ft | 498 kts | 119° |
| 2026-05-06 11:12 | 41.87319 | 26.98260 | 28131 ft | 482 kts | 119° |
| 2026-05-06 11:12 | 41.85620 | 27.01982 | 28027 ft | 467 kts | 119° |
| 2026-05-06 11:13 | 41.83948 | 27.05641 | 27858 ft | 453 kts | 119° |
| 2026-05-06 11:13 | 41.82316 | 27.09217 | 27410 ft | 447 kts | 119° |
| 2026-05-06 11:13 | 41.80701 | 27.12756 | 26906 ft | 443 kts | 118° |
| 2026-05-06 11:13 | 41.79002 | 27.16208 | 26451 ft | 443 kts | 122° |
| 2026-05-06 11:14 | 41.77235 | 27.19594 | 26020 ft | 443 kts | 122° |
| 2026-05-06 11:14 | 41.75476 | 27.22965 | 25576 ft | 441 kts | 122° |
| 2026-05-06 11:14 | 41.73733 | 27.26325 | 25149 ft | 438 kts | 122° |
| 2026-05-06 11:14 | 41.72009 | 27.29661 | 24683 ft | 433 kts | 122° |
| 2026-05-06 11:15 | 41.70142 | 27.32806 | 24259 ft | 432 kts | 133° |
| 2026-05-06 11:15 | 41.67741 | 27.35189 | 23824 ft | 431 kts | 153° |
| 2026-05-06 11:15 | 41.64945 | 27.36564 | 23335 ft | 427 kts | 165° |
| 2026-05-06 11:15 | 41.62084 | 27.37565 | 22898 ft | 424 kts | 166° |
| 2026-05-06 11:16 | 41.59236 | 27.38526 | 22465 ft | 421 kts | 166° |
| 2026-05-06 11:16 | 41.56405 | 27.39490 | 22100 ft | 416 kts | 166° |
| 2026-05-06 11:16 | 41.53641 | 27.40443 | 21864 ft | 405 kts | 166° |
| 2026-05-06 11:16 | 41.50950 | 27.41373 | 21641 ft | 394 kts | 166° |
| 2026-05-06 11:17 | 41.48334 | 27.42276 | 21407 ft | 384 kts | 166° |
| 2026-05-06 11:17 | 41.45783 | 27.43213 | 21015 ft | 379 kts | 161° |
| 2026-05-06 11:17 | 41.43514 | 27.44906 | 20567 ft | 373 kts | 137° |
| 2026-05-06 11:17 | 41.41956 | 27.47575 | 20146 ft | 362 kts | 112° |
| 2026-05-06 11:18 | 41.41358 | 27.50749 | 19723 ft | 349 kts | 87° |
| 2026-05-06 11:18 | 41.41793 | 27.53834 | 19288 ft | 335 kts | 62° |
| 2026-05-06 11:18 | 41.43008 | 27.56420 | 18853 ft | 327 kts | 51° |
| 2026-05-06 11:18 | 41.44086 | 27.59103 | 18400 ft | 331 kts | 66° |
| 2026-05-06 11:19 | 41.44781 | 27.62027 | 17987 ft | 329 kts | 70° |
| 2026-05-06 11:19 | 41.45367 | 27.64904 | 17644 ft | 324 kts | 71° |
| 2026-05-06 11:19 | 41.45938 | 27.67791 | 17312 ft | 321 kts | 71° |
| 2026-05-06 11:19 | 41.46501 | 27.70671 | 16989 ft | 320 kts | 71° |
| 2026-05-06 11:20 | 41.47058 | 27.73538 | 16657 ft | 319 kts | 71° |
| 2026-05-06 11:20 | 41.47611 | 27.76392 | 16345 ft | 317 kts | 71° |
| 2026-05-06 11:20 | 41.48160 | 27.79236 | 16023 ft | 316 kts | 71° |
| 2026-05-06 11:20 | 41.48696 | 27.82078 | 15707 ft | 315 kts | 73° |
| 2026-05-06 11:21 | 41.48883 | 27.85001 | 15402 ft | 319 kts | 89° |
| 2026-05-06 11:21 | 41.48702 | 27.87949 | 15065 ft | 318 kts | 92° |
| 2026-05-06 11:21 | 41.48462 | 27.90879 | 14741 ft | 317 kts | 92° |
| 2026-05-06 11:21 | 41.48223 | 27.93797 | 14418 ft | 316 kts | 92° |
| 2026-05-06 11:22 | 41.47984 | 27.96702 | 14102 ft | 315 kts | 92° |
| 2026-05-06 11:22 | 41.47468 | 27.99506 | 13771 ft | 319 kts | 110° |
| 2026-05-06 11:22 | 41.46191 | 28.01919 | 13438 ft | 323 kts | 134° |
| 2026-05-06 11:22 | 41.44470 | 28.03853 | 13093 ft | 323 kts | 140° |
| 2026-05-06 11:23 | 41.42695 | 28.05686 | 12775 ft | 322 kts | 140° |
| 2026-05-06 11:23 | 41.40929 | 28.07512 | 12445 ft | 321 kts | 140° |
| 2026-05-06 11:23 | 41.39093 | 28.09208 | 12116 ft | 322 kts | 151° |
| 2026-05-06 11:23 | 41.36959 | 28.10021 | 11800 ft | 321 kts | 175° |
| 2026-05-06 11:24 | 41.34743 | 28.10132 | 11527 ft | 316 kts | 180° |
| 2026-05-06 11:24 | 41.32584 | 28.10142 | 11293 ft | 303 kts | 180° |
| 2026-05-06 11:24 | 41.30523 | 28.10153 | 10974 ft | 293 kts | 180° |
| 2026-05-06 11:24 | 41.28471 | 28.10173 | 10688 ft | 295 kts | 180° |
| 2026-05-06 11:25 | 41.26434 | 28.10113 | 10379 ft | 291 kts | 188° |
| 2026-05-06 11:25 | 41.24562 | 28.09235 | 10093 ft | 284 kts | 218° |
| 2026-05-06 11:25 | 41.23080 | 28.07539 | 9988 ft | 282 kts | 228° |
| 2026-05-06 11:25 | 41.21681 | 28.05699 | 9983 ft | 283 kts | 228° |
| 2026-05-06 11:26 | 41.20287 | 28.03859 | 9990 ft | 282 kts | 228° |
| 2026-05-06 11:26 | 41.18860 | 28.02064 | 9986 ft | 284 kts | 222° |
| 2026-05-06 11:26 | 41.17213 | 28.00603 | 9987 ft | 285 kts | 213° |
| 2026-05-06 11:26 | 41.15485 | 27.99303 | 9995 ft | 286 kts | 212° |
| 2026-05-06 11:27 | 41.13748 | 27.98022 | 9988 ft | 286 kts | 211° |
| 2026-05-06 11:27 | 41.12012 | 27.96738 | 9989 ft | 286 kts | 212° |
| 2026-05-06 11:27 | 41.10198 | 27.95633 | 10009 ft | 288 kts | 200° |
| 2026-05-06 11:27 | 41.08296 | 27.94914 | 9995 ft | 288 kts | 195° |
| 2026-05-06 11:28 | 41.06350 | 27.94266 | 10004 ft | 288 kts | 195° |
| 2026-05-06 11:28 | 41.04408 | 27.93622 | 9989 ft | 287 kts | 195° |
| 2026-05-06 11:28 | 41.02464 | 27.92997 | 9988 ft | 288 kts | 192° |
| 2026-05-06 11:28 | 41.00471 | 27.92766 | 9987 ft | 288 kts | 181° |
| 2026-05-06 11:29 | 40.98464 | 27.92782 | 9995 ft | 288 kts | 179° |
| 2026-05-06 11:29 | 40.96459 | 27.92888 | 9981 ft | 288 kts | 173° |
| 2026-05-06 11:29 | 40.94583 | 27.93727 | 10001 ft | 285 kts | 144° |
| 2026-05-06 11:29 | 40.93258 | 27.95588 | 9986 ft | 276 kts | 114° |
| 2026-05-06 11:30 | 40.92772 | 27.97954 | 10011 ft | 265 kts | 86° |
| 2026-05-06 11:30 | 40.93109 | 28.00304 | 10043 ft | 259 kts | 64° |
| 2026-05-06 11:30 | 40.93659 | 28.02585 | 10078 ft | 263 kts | 73° |
| 2026-05-06 11:30 | 40.93992 | 28.04966 | 10115 ft | 264 kts | 77° |
| 2026-05-06 11:31 | 40.94265 | 28.07382 | 10151 ft | 265 kts | 77° |
| 2026-05-06 11:31 | 40.94527 | 28.09798 | 10190 ft | 266 kts | 77° |
| 2026-05-06 11:31 | 40.94786 | 28.12218 | 10209 ft | 266 kts | 77° |
| 2026-05-06 11:31 | 40.95044 | 28.14643 | 10031 ft | 265 kts | 77° |
| 2026-05-06 11:32 | 40.95298 | 28.17048 | 9788 ft | 265 kts | 77° |
| 2026-05-06 11:32 | 40.95556 | 28.19465 | 9563 ft | 265 kts | 77° |
| 2026-05-06 11:32 | 40.95810 | 28.21871 | 9296 ft | 263 kts | 77° |
| 2026-05-06 11:32 | 40.96063 | 28.24265 | 9042 ft | 262 kts | 77° |
| 2026-05-06 11:33 | 40.96317 | 28.26651 | 8777 ft | 262 kts | 77° |
| 2026-05-06 11:33 | 40.96566 | 28.29032 | 8513 ft | 261 kts | 78° |
| 2026-05-06 11:33 | 40.96813 | 28.31402 | 8266 ft | 260 kts | 78° |
| 2026-05-06 11:33 | 40.97060 | 28.33767 | 8021 ft | 259 kts | 78° |
| 2026-05-06 11:34 | 40.97302 | 28.36101 | 7855 ft | 251 kts | 78° |
| 2026-05-06 11:34 | 40.97365 | 28.38380 | 7630 ft | 250 kts | 94° |
| 2026-05-06 11:34 | 40.96796 | 28.40562 | 7389 ft | 254 kts | 114° |
| 2026-05-06 11:34 | 40.95934 | 28.42603 | 7144 ft | 254 kts | 117° |
| 2026-05-06 11:35 | 40.95055 | 28.44591 | 6903 ft | 253 kts | 117° |
| 2026-05-06 11:35 | 40.94173 | 28.46594 | 6662 ft | 252 kts | 117° |
| 2026-05-06 11:35 | 40.93299 | 28.48593 | 6416 ft | 250 kts | 117° |
| 2026-05-06 11:35 | 40.92432 | 28.50591 | 6149 ft | 250 kts | 117° |
| 2026-05-06 11:36 | 40.91571 | 28.52576 | 5908 ft | 249 kts | 117° |
| 2026-05-06 11:36 | 40.90711 | 28.54561 | 5644 ft | 248 kts | 117° |
| 2026-05-06 11:36 | 40.89865 | 28.56543 | 5383 ft | 247 kts | 116° |
| 2026-05-06 11:36 | 40.89368 | 28.58682 | 5211 ft | 243 kts | 91° |
| 2026-05-06 11:37 | 40.89616 | 28.60848 | 5095 ft | 238 kts | 70° |
| 2026-05-06 11:37 | 40.90141 | 28.62911 | 5002 ft | 236 kts | 67° |
| 2026-05-06 11:37 | 40.90690 | 28.64950 | 4989 ft | 235 kts | 67° |
| 2026-05-06 11:37 | 40.91234 | 28.66979 | 4998 ft | 234 kts | 67° |
| 2026-05-06 11:38 | 40.91994 | 28.68851 | 4985 ft | 227 kts | 47° |
| 2026-05-06 11:38 | 40.93160 | 28.70096 | 4982 ft | 207 kts | 28° |
| 2026-05-06 11:38 | 40.94361 | 28.70996 | 4970 ft | 191 kts | 26° |
| 2026-05-06 11:38 | 40.95497 | 28.71814 | 4988 ft | 184 kts | 26° |
| 2026-05-06 11:39 | 40.96619 | 28.72609 | 4991 ft | 183 kts | 24° |
| 2026-05-06 11:39 | 40.97806 | 28.73137 | 4999 ft | 179 kts | 10° |
| 2026-05-06 11:39 | 40.99040 | 28.73342 | 4988 ft | 179 kts | 1° |
| 2026-05-06 11:39 | 41.00289 | 28.73368 | 4993 ft | 180 kts | 359° |
| 2026-05-06 11:40 | 41.01544 | 28.73344 | 4992 ft | 179 kts | 358° |
| 2026-05-06 11:40 | 41.02753 | 28.73315 | 4967 ft | 169 kts | 358° |
| 2026-05-06 11:40 | 41.03908 | 28.73290 | 4828 ft | 164 kts | 358° |
| 2026-05-06 11:40 | 41.05041 | 28.73267 | 4569 ft | 162 kts | 358° |
| 2026-05-06 11:41 | 41.06164 | 28.73240 | 4314 ft | 161 kts | 358° |
| 2026-05-06 11:41 | 41.07285 | 28.73214 | 4073 ft | 161 kts | 358° |
| 2026-05-06 11:41 | 41.08401 | 28.73188 | 3839 ft | 160 kts | 359° |
| 2026-05-06 11:41 | 41.09512 | 28.73164 | 3615 ft | 160 kts | 358° |
| 2026-05-06 11:42 | 41.10622 | 28.73138 | 3416 ft | 160 kts | 358° |
| 2026-05-06 11:42 | 41.11737 | 28.73111 | 3191 ft | 160 kts | 358° |
| 2026-05-06 11:42 | 41.12844 | 28.73085 | 2966 ft | 159 kts | 359° |
| 2026-05-06 11:42 | 41.13955 | 28.73060 | 2769 ft | 160 kts | 358° |
| 2026-05-06 11:43 | 41.15038 | 28.73035 | 2564 ft | 156 kts | 359° |
| 2026-05-06 11:43 | 41.16106 | 28.73010 | 2346 ft | 151 kts | 359° |
| 2026-05-06 11:43 | 41.17129 | 28.72986 | 2152 ft | 145 kts | 358° |
| 2026-05-06 11:44 | 41.19068 | 28.72941 | 1766 ft | 133 kts | 358° |
| 2026-05-06 11:44 | 41.19992 | 28.72920 | 1604 ft | 133 kts | 358° |
| 2026-05-06 11:44 | 41.20919 | 28.72904 | 1398 ft | 133 kts | 359° |
| 2026-05-06 11:44 | 41.21843 | 28.72896 | 1239 ft | 133 kts | 359° |
| 2026-05-06 11:45 | 41.22767 | 28.72873 | 1086 ft | 132 kts | 359° |
| 2026-05-06 11:45 | 41.23676 | 28.72823 | 895 ft | 131 kts | 359° |
| 2026-05-06 11:45 | 41.24578 | 28.72799 | 724 ft | 128 kts | 3° |
| 2026-05-06 11:45 | 41.25455 | 28.72781 | 551 ft | 124 kts | 4° |
| 2026-05-06 11:46 | 41.26318 | 28.72764 | 394 ft | 124 kts | 4° |
| 2026-05-06 11:46 | 41.27158 | 28.72760 | 337 ft | 106 kts | 359° |
| 2026-05-06 11:46 | 41.27658 | 28.72744 | 335 ft | 38 kts | 359° |
| 2026-05-06 11:46 | 41.27863 | 28.72744 | 335 ft | 29 kts | 5° |
| 2026-05-06 11:47 | 41.28029 | 28.72807 | 336 ft | 18 kts | 26° |
| 2026-05-06 11:47 | 41.28116 | 28.72878 | 335 ft | 6 kts | 49° |
| 2026-05-06 11:47 | 41.28121 | 28.72890 | 335 ft | 0 kts | 60° |
| 2026-05-06 11:48 | 41.28122 | 28.72892 | 335 ft | 0 kts | 61° |
| 2026-05-06 11:49 | 41.28124 | 28.72897 | 335 ft | 2 kts | 64° |
| 2026-05-06 11:49 | 41.28124 | 28.72923 | 335 ft | 4 kts | 100° |
| 2026-05-06 11:49 | 41.28102 | 28.72948 | 337 ft | 6 kts | 153° |
| 2026-05-06 11:49 | 41.28048 | 28.72961 | 335 ft | 10 kts | 174° |
| 2026-05-06 11:50 | 41.27961 | 28.72966 | 336 ft | 15 kts | 180° |
| 2026-05-06 11:50 | 41.27843 | 28.72966 | 336 ft | 19 kts | 179° |
| 2026-05-06 11:50 | 41.27719 | 28.72970 | 335 ft | 19 kts | 179° |
| 2026-05-06 11:50 | 41.27571 | 28.72974 | 335 ft | 23 kts | 179° |
| 2026-05-06 11:51 | 41.27397 | 28.72979 | 338 ft | 27 kts | 179° |
| 2026-05-06 11:51 | 41.27277 | 28.72981 | 340 ft | 13 kts | 180° |
| 2026-05-06 11:51 | 41.27176 | 28.72982 | 336 ft | 17 kts | 179° |
| 2026-05-06 11:51 | 41.27048 | 28.72984 | 336 ft | 20 kts | 178° |
| 2026-05-06 11:52 | 41.26904 | 28.72989 | 335 ft | 18 kts | 178° |
| 2026-05-06 11:52 | 41.26801 | 28.72992 | 337 ft | 1 kts | 178° |
| 2026-05-06 11:52 | 41.26781 | 28.72993 | 339 ft | 5 kts | 178° |
| 2026-05-06 11:52 | 41.26735 | 28.73018 | 336 ft | 9 kts | 136° |
| 2026-05-06 11:53 | 41.26720 | 28.73104 | 338 ft | 11 kts | 92° |
| 2026-05-06 11:53 | 41.26721 | 28.73221 | 340 ft | 14 kts | 89° |
| 2026-05-06 11:53 | 41.26710 | 28.73328 | 336 ft | 9 kts | 106° |
| 2026-05-06 11:53 | 41.26704 | 28.73399 | 336 ft | 7 kts | 90° |
| 2026-05-06 11:54 | 41.26704 | 28.73436 | 337 ft | 0 kts | 89° |
| 2026-05-06 11:54 | 41.26704 | 28.73448 | 337 ft | 0 kts | 90° |